sensor_id;sensor_type;location;lat;lon;timestamp;P1;durP1;ratioP1;P2;durP2;ratioP2
179;SDS011;78;48.788;9.010;2024-01-07T00:01:37;50.57;;;19.33;;
179;SDS011;78;48.788;9.010;2024-01-07T00:04:03;50.93;;;19.70;;
179;SDS011;78;48.788;9.010;2024-01-07T00:06:29;51.20;;;19.60;;
179;SDS011;78;48.788;9.010;2024-01-07T00:08:55;51.27;;;18.90;;
179;SDS011;78;48.788;9.010;2024-01-07T00:11:22;41.17;;;16.00;;
179;SDS011;78;48.788;9.010;2024-01-07T00:13:48;44.50;;;17.67;;
179;SDS011;78;48.788;9.010;2024-01-07T00:16:14;39.50;;;15.80;;
179;SDS011;78;48.788;9.010;2024-01-07T00:18:40;37.70;;;14.77;;
179;SDS011;78;48.788;9.010;2024-01-07T00:21:06;37.00;;;13.43;;
179;SDS011;78;48.788;9.010;2024-01-07T00:23:32;39.37;;;15.03;;
179;SDS011;78;48.788;9.010;2024-01-07T00:25:58;36.87;;;14.30;;
179;SDS011;78;48.788;9.010;2024-01-07T00:28:24;37.57;;;14.13;;
179;SDS011;78;48.788;9.010;2024-01-07T00:30:50;38.17;;;14.77;;
179;SDS011;78;48.788;9.010;2024-01-07T00:33:16;45.33;;;16.67;;
179;SDS011;78;48.788;9.010;2024-01-07T00:35:42;43.20;;;16.20;;
179;SDS011;78;48.788;9.010;2024-01-07T00:38:08;43.70;;;16.30;;
179;SDS011;78;48.788;9.010;2024-01-07T00:40:34;51.40;;;16.80;;
179;SDS011;78;48.788;9.010;2024-01-07T00:43:00;63.90;;;18.97;;
179;SDS011;78;48.788;9.010;2024-01-07T00:45:26;45.27;;;16.60;;
179;SDS011;78;48.788;9.010;2024-01-07T00:47:52;50.23;;;17.30;;
179;SDS011;78;48.788;9.010;2024-01-07T00:50:19;63.97;;;17.30;;
179;SDS011;78;48.788;9.010;2024-01-07T00:52:45;56.13;;;18.40;;
179;SDS011;78;48.788;9.010;2024-01-07T00:55:11;50.73;;;17.30;;
179;SDS011;78;48.788;9.010;2024-01-07T00:57:37;57.73;;;19.40;;
179;SDS011;78;48.788;9.010;2024-01-07T01:00:06;75.47;;;18.60;;
179;SDS011;78;48.788;9.010;2024-01-07T01:02:33;60.13;;;18.00;;
179;SDS011;78;48.788;9.010;2024-01-07T01:05:01;97.63;;;18.33;;
179;SDS011;78;48.788;9.010;2024-01-07T01:07:26;84.90;;;17.70;;
179;SDS011;78;48.788;9.010;2024-01-07T01:09:52;59.93;;;17.73;;
179;SDS011;78;48.788;9.010;2024-01-07T01:12:18;110.67;;;18.67;;
179;SDS011;78;48.788;9.010;2024-01-07T01:14:44;62.33;;;18.43;;
179;SDS011;78;48.788;9.010;2024-01-07T01:17:11;72.60;;;18.23;;
179;SDS011;78;48.788;9.010;2024-01-07T01:19:37;65.00;;;19.27;;
179;SDS011;78;48.788;9.010;2024-01-07T01:22:03;54.93;;;18.60;;
179;SDS011;78;48.788;9.010;2024-01-07T01:24:30;65.97;;;18.07;;
179;SDS011;78;48.788;9.010;2024-01-07T01:26:56;68.97;;;18.33;;
179;SDS011;78;48.788;9.010;2024-01-07T01:29:22;68.17;;;18.47;;
179;SDS011;78;48.788;9.010;2024-01-07T01:31:49;138.57;;;19.40;;
179;SDS011;78;48.788;9.010;2024-01-07T01:34:15;105.43;;;19.07;;
179;SDS011;78;48.788;9.010;2024-01-07T01:36:42;138.50;;;19.67;;
179;SDS011;78;48.788;9.010;2024-01-07T01:39:08;113.20;;;21.30;;
179;SDS011;78;48.788;9.010;2024-01-07T01:41:34;58.93;;;17.83;;
179;SDS011;78;48.788;9.010;2024-01-07T01:44:00;58.30;;;18.20;;
179;SDS011;78;48.788;9.010;2024-01-07T01:46:26;95.43;;;17.80;;
179;SDS011;78;48.788;9.010;2024-01-07T01:48:54;92.73;;;19.63;;
179;SDS011;78;48.788;9.010;2024-01-07T01:51:21;60.00;;;19.20;;
179;SDS011;78;48.788;9.010;2024-01-07T01:53:47;152.63;;;20.50;;
179;SDS011;78;48.788;9.010;2024-01-07T01:56:13;73.50;;;20.77;;
179;SDS011;78;48.788;9.010;2024-01-07T01:58:39;110.27;;;19.93;;
179;SDS011;78;48.788;9.010;2024-01-07T02:01:06;52.00;;;18.23;;
179;SDS011;78;48.788;9.010;2024-01-07T02:03:32;60.90;;;18.70;;
179;SDS011;78;48.788;9.010;2024-01-07T02:05:58;48.90;;;17.90;;
179;SDS011;78;48.788;9.010;2024-01-07T02:08:25;47.10;;;16.97;;
179;SDS011;78;48.788;9.010;2024-01-07T02:10:51;48.27;;;17.23;;
179;SDS011;78;48.788;9.010;2024-01-07T02:13:17;61.43;;;20.50;;
179;SDS011;78;48.788;9.010;2024-01-07T02:15:43;56.33;;;19.97;;
179;SDS011;78;48.788;9.010;2024-01-07T02:18:09;52.70;;;19.20;;
179;SDS011;78;48.788;9.010;2024-01-07T02:20:36;54.80;;;19.23;;
179;SDS011;78;48.788;9.010;2024-01-07T02:23:03;55.67;;;18.77;;
179;SDS011;78;48.788;9.010;2024-01-07T02:25:29;52.17;;;19.70;;
179;SDS011;78;48.788;9.010;2024-01-07T02:27:55;59.27;;;20.43;;
179;SDS011;78;48.788;9.010;2024-01-07T02:30:21;57.90;;;20.70;;
179;SDS011;78;48.788;9.010;2024-01-07T02:32:48;59.53;;;21.37;;
179;SDS011;78;48.788;9.010;2024-01-07T02:35:14;55.90;;;19.73;;
179;SDS011;78;48.788;9.010;2024-01-07T02:37:41;59.17;;;21.20;;
179;SDS011;78;48.788;9.010;2024-01-07T02:40:07;53.67;;;19.57;;
179;SDS011;78;48.788;9.010;2024-01-07T02:42:34;55.17;;;21.67;;
179;SDS011;78;48.788;9.010;2024-01-07T02:45:00;53.93;;;20.27;;
179;SDS011;78;48.788;9.010;2024-01-07T02:47:27;52.93;;;19.63;;
179;SDS011;78;48.788;9.010;2024-01-07T02:49:52;59.37;;;21.77;;
179;SDS011;78;48.788;9.010;2024-01-07T02:52:18;54.70;;;20.20;;
179;SDS011;78;48.788;9.010;2024-01-07T02:54:45;58.57;;;22.50;;
179;SDS011;78;48.788;9.010;2024-01-07T02:57:11;60.70;;;22.00;;
179;SDS011;78;48.788;9.010;2024-01-07T02:59:37;65.83;;;22.00;;
179;SDS011;78;48.788;9.010;2024-01-07T03:02:04;55.17;;;19.90;;
179;SDS011;78;48.788;9.010;2024-01-07T03:04:30;56.90;;;21.63;;
179;SDS011;78;48.788;9.010;2024-01-07T03:06:56;55.77;;;20.40;;
179;SDS011;78;48.788;9.010;2024-01-07T03:09:22;51.43;;;20.37;;
179;SDS011;78;48.788;9.010;2024-01-07T03:11:48;52.93;;;18.60;;
179;SDS011;78;48.788;9.010;2024-01-07T03:14:14;51.33;;;19.53;;
179;SDS011;78;48.788;9.010;2024-01-07T03:16:43;56.63;;;20.37;;
179;SDS011;78;48.788;9.010;2024-01-07T03:19:09;56.30;;;21.30;;
179;SDS011;78;48.788;9.010;2024-01-07T03:21:35;56.77;;;20.27;;
179;SDS011;78;48.788;9.010;2024-01-07T03:24:01;56.67;;;21.10;;
179;SDS011;78;48.788;9.010;2024-01-07T03:26:29;54.23;;;20.63;;
179;SDS011;78;48.788;9.010;2024-01-07T03:28:57;57.57;;;21.40;;
179;SDS011;78;48.788;9.010;2024-01-07T03:31:25;56.13;;;21.07;;
179;SDS011;78;48.788;9.010;2024-01-07T03:33:51;56.70;;;21.20;;
179;SDS011;78;48.788;9.010;2024-01-07T03:36:17;57.30;;;20.50;;
179;SDS011;78;48.788;9.010;2024-01-07T03:38:43;59.90;;;21.90;;
179;SDS011;78;48.788;9.010;2024-01-07T03:41:15;51.77;;;19.70;;
179;SDS011;78;48.788;9.010;2024-01-07T03:43:41;57.23;;;20.90;;
179;SDS011;78;48.788;9.010;2024-01-07T03:46:08;49.73;;;19.20;;
179;SDS011;78;48.788;9.010;2024-01-07T03:48:34;55.23;;;20.43;;
179;SDS011;78;48.788;9.010;2024-01-07T03:51:00;51.63;;;19.50;;
179;SDS011;78;48.788;9.010;2024-01-07T03:53:26;51.60;;;20.10;;
179;SDS011;78;48.788;9.010;2024-01-07T03:55:52;51.80;;;19.97;;
179;SDS011;78;48.788;9.010;2024-01-07T03:58:19;53.93;;;18.87;;
179;SDS011;78;48.788;9.010;2024-01-07T04:00:45;50.03;;;20.03;;
179;SDS011;78;48.788;9.010;2024-01-07T04:03:11;50.73;;;19.77;;
179;SDS011;78;48.788;9.010;2024-01-07T04:05:38;51.53;;;19.57;;
179;SDS011;78;48.788;9.010;2024-01-07T04:08:04;58.63;;;21.00;;
179;SDS011;78;48.788;9.010;2024-01-07T04:10:30;50.63;;;18.30;;
179;SDS011;78;48.788;9.010;2024-01-07T04:12:57;56.17;;;19.47;;
179;SDS011;78;48.788;9.010;2024-01-07T04:15:23;48.20;;;18.53;;
179;SDS011;78;48.788;9.010;2024-01-07T04:17:50;47.83;;;18.27;;
179;SDS011;78;48.788;9.010;2024-01-07T04:20:16;49.20;;;19.47;;
179;SDS011;78;48.788;9.010;2024-01-07T04:22:43;55.50;;;19.90;;
179;SDS011;78;48.788;9.010;2024-01-07T04:25:09;49.70;;;18.47;;
179;SDS011;78;48.788;9.010;2024-01-07T04:27:36;47.60;;;18.10;;
179;SDS011;78;48.788;9.010;2024-01-07T04:30:02;48.50;;;18.73;;
179;SDS011;78;48.788;9.010;2024-01-07T04:32:29;47.57;;;18.00;;
179;SDS011;78;48.788;9.010;2024-01-07T04:34:55;47.07;;;17.83;;
179;SDS011;78;48.788;9.010;2024-01-07T04:37:23;46.70;;;17.70;;
179;SDS011;78;48.788;9.010;2024-01-07T04:39:49;43.20;;;17.30;;
179;SDS011;78;48.788;9.010;2024-01-07T04:42:16;39.07;;;16.00;;
179;SDS011;78;48.788;9.010;2024-01-07T04:44:42;40.30;;;16.27;;
179;SDS011;78;48.788;9.010;2024-01-07T04:49:54;40.70;;;14.77;;
179;SDS011;78;48.788;9.010;2024-01-07T04:52:21;42.53;;;15.77;;
179;SDS011;78;48.788;9.010;2024-01-07T04:54:47;40.53;;;15.17;;
179;SDS011;78;48.788;9.010;2024-01-07T04:57:13;52.90;;;18.70;;
179;SDS011;78;48.788;9.010;2024-01-07T04:59:39;47.30;;;17.73;;
179;SDS011;78;48.788;9.010;2024-01-07T05:02:05;43.77;;;17.43;;
179;SDS011;78;48.788;9.010;2024-01-07T05:04:31;47.13;;;17.00;;
179;SDS011;78;48.788;9.010;2024-01-07T05:06:58;53.80;;;18.40;;
179;SDS011;78;48.788;9.010;2024-01-07T05:09:24;48.27;;;18.37;;
179;SDS011;78;48.788;9.010;2024-01-07T05:11:51;48.77;;;17.77;;
179;SDS011;78;48.788;9.010;2024-01-07T05:14:17;45.03;;;16.90;;
179;SDS011;78;48.788;9.010;2024-01-07T05:16:44;48.90;;;18.27;;
179;SDS011;78;48.788;9.010;2024-01-07T05:19:10;55.00;;;19.00;;
179;SDS011;78;48.788;9.010;2024-01-07T05:21:36;53.10;;;18.87;;
179;SDS011;78;48.788;9.010;2024-01-07T05:24:02;50.83;;;19.17;;
179;SDS011;78;48.788;9.010;2024-01-07T05:26:29;50.73;;;18.90;;
179;SDS011;78;48.788;9.010;2024-01-07T05:28:56;47.00;;;17.63;;
179;SDS011;78;48.788;9.010;2024-01-07T05:31:22;45.30;;;17.57;;
179;SDS011;78;48.788;9.010;2024-01-07T05:33:48;48.23;;;17.83;;
179;SDS011;78;48.788;9.010;2024-01-07T05:36:15;47.83;;;18.77;;
179;SDS011;78;48.788;9.010;2024-01-07T05:38:44;48.30;;;17.80;;
179;SDS011;78;48.788;9.010;2024-01-07T05:41:09;42.80;;;16.27;;
179;SDS011;78;48.788;9.010;2024-01-07T05:43:36;53.43;;;18.77;;
179;SDS011;78;48.788;9.010;2024-01-07T05:46:02;48.37;;;17.67;;
179;SDS011;78;48.788;9.010;2024-01-07T05:48:29;47.70;;;16.90;;
179;SDS011;78;48.788;9.010;2024-01-07T05:50:55;49.23;;;18.60;;
179;SDS011;78;48.788;9.010;2024-01-07T05:53:21;50.77;;;18.30;;
179;SDS011;78;48.788;9.010;2024-01-07T05:55:47;46.53;;;16.93;;
179;SDS011;78;48.788;9.010;2024-01-07T05:58:13;51.23;;;17.90;;
179;SDS011;78;48.788;9.010;2024-01-07T06:00:39;43.60;;;16.13;;
179;SDS011;78;48.788;9.010;2024-01-07T06:03:06;47.50;;;18.53;;
179;SDS011;78;48.788;9.010;2024-01-07T06:05:32;47.30;;;18.03;;
179;SDS011;78;48.788;9.010;2024-01-07T06:07:58;44.50;;;17.20;;
179;SDS011;78;48.788;9.010;2024-01-07T06:10:25;51.90;;;18.53;;
179;SDS011;78;48.788;9.010;2024-01-07T06:12:51;47.73;;;17.60;;
179;SDS011;78;48.788;9.010;2024-01-07T06:15:18;48.40;;;18.87;;
179;SDS011;78;48.788;9.010;2024-01-07T06:17:44;50.57;;;18.80;;
179;SDS011;78;48.788;9.010;2024-01-07T06:20:11;44.20;;;17.60;;
179;SDS011;78;48.788;9.010;2024-01-07T06:22:38;42.40;;;17.47;;
179;SDS011;78;48.788;9.010;2024-01-07T06:25:04;44.67;;;17.30;;
179;SDS011;78;48.788;9.010;2024-01-07T06:27:31;44.67;;;16.60;;
179;SDS011;78;48.788;9.010;2024-01-07T06:29:57;45.17;;;17.50;;
179;SDS011;78;48.788;9.010;2024-01-07T06:32:24;43.60;;;17.47;;
179;SDS011;78;48.788;9.010;2024-01-07T06:34:50;42.73;;;17.37;;
179;SDS011;78;48.788;9.010;2024-01-07T06:37:17;45.70;;;16.90;;
179;SDS011;78;48.788;9.010;2024-01-07T06:39:43;44.27;;;16.63;;
179;SDS011;78;48.788;9.010;2024-01-07T06:42:09;43.57;;;16.70;;
179;SDS011;78;48.788;9.010;2024-01-07T06:44:35;43.73;;;16.80;;
179;SDS011;78;48.788;9.010;2024-01-07T06:47:02;42.20;;;16.37;;
179;SDS011;78;48.788;9.010;2024-01-07T06:49:28;56.83;;;19.20;;
179;SDS011;78;48.788;9.010;2024-01-07T06:51:55;49.50;;;17.73;;
179;SDS011;78;48.788;9.010;2024-01-07T06:54:20;47.10;;;16.87;;
179;SDS011;78;48.788;9.010;2024-01-07T06:56:47;41.87;;;16.60;;
179;SDS011;78;48.788;9.010;2024-01-07T06:59:13;44.53;;;17.73;;
179;SDS011;78;48.788;9.010;2024-01-07T07:01:39;44.00;;;16.83;;
179;SDS011;78;48.788;9.010;2024-01-07T07:04:05;44.63;;;16.77;;
179;SDS011;78;48.788;9.010;2024-01-07T07:06:32;41.83;;;15.83;;
179;SDS011;78;48.788;9.010;2024-01-07T07:08:58;41.40;;;15.77;;
179;SDS011;78;48.788;9.010;2024-01-07T07:11:24;43.27;;;16.90;;
179;SDS011;78;48.788;9.010;2024-01-07T07:13:51;49.43;;;17.43;;
179;SDS011;78;48.788;9.010;2024-01-07T07:16:17;40.67;;;16.40;;
179;SDS011;78;48.788;9.010;2024-01-07T07:18:44;41.40;;;16.10;;
179;SDS011;78;48.788;9.010;2024-01-07T07:21:10;49.33;;;18.10;;
179;SDS011;78;48.788;9.010;2024-01-07T07:23:36;48.23;;;18.33;;
179;SDS011;78;48.788;9.010;2024-01-07T07:26:03;45.43;;;17.53;;
179;SDS011;78;48.788;9.010;2024-01-07T07:28:29;44.80;;;16.40;;
179;SDS011;78;48.788;9.010;2024-01-07T07:30:55;43.00;;;16.80;;
179;SDS011;78;48.788;9.010;2024-01-07T07:33:22;41.40;;;16.80;;
179;SDS011;78;48.788;9.010;2024-01-07T07:35:49;40.90;;;15.60;;
179;SDS011;78;48.788;9.010;2024-01-07T07:38:16;43.33;;;17.00;;
179;SDS011;78;48.788;9.010;2024-01-07T07:40:42;42.47;;;16.47;;
179;SDS011;78;48.788;9.010;2024-01-07T07:43:10;42.83;;;15.40;;
179;SDS011;78;48.788;9.010;2024-01-07T07:45:36;41.57;;;15.30;;
179;SDS011;78;48.788;9.010;2024-01-07T07:48:02;42.07;;;15.60;;
179;SDS011;78;48.788;9.010;2024-01-07T07:50:28;39.20;;;14.90;;
179;SDS011;78;48.788;9.010;2024-01-07T07:52:54;37.07;;;14.27;;
179;SDS011;78;48.788;9.010;2024-01-07T07:55:20;40.13;;;15.93;;
179;SDS011;78;48.788;9.010;2024-01-07T07:57:46;39.40;;;15.30;;
179;SDS011;78;48.788;9.010;2024-01-07T08:00:13;39.27;;;14.30;;
179;SDS011;78;48.788;9.010;2024-01-07T08:02:39;39.80;;;15.27;;
179;SDS011;78;48.788;9.010;2024-01-07T08:05:06;38.63;;;15.27;;
179;SDS011;78;48.788;9.010;2024-01-07T08:07:32;39.87;;;14.90;;
179;SDS011;78;48.788;9.010;2024-01-07T08:09:59;35.60;;;13.90;;
179;SDS011;78;48.788;9.010;2024-01-07T08:12:25;38.37;;;15.60;;
179;SDS011;78;48.788;9.010;2024-01-07T08:14:51;34.90;;;13.70;;
179;SDS011;78;48.788;9.010;2024-01-07T08:17:18;36.77;;;14.60;;
179;SDS011;78;48.788;9.010;2024-01-07T08:19:44;36.00;;;14.17;;
179;SDS011;78;48.788;9.010;2024-01-07T08:22:10;33.57;;;13.10;;
179;SDS011;78;48.788;9.010;2024-01-07T08:24:37;39.40;;;14.50;;
179;SDS011;78;48.788;9.010;2024-01-07T08:27:04;36.07;;;13.27;;
179;SDS011;78;48.788;9.010;2024-01-07T08:29:30;37.70;;;14.00;;
179;SDS011;78;48.788;9.010;2024-01-07T08:31:56;42.33;;;16.67;;
179;SDS011;78;48.788;9.010;2024-01-07T08:34:22;42.87;;;17.93;;
179;SDS011;78;48.788;9.010;2024-01-07T08:36:49;36.50;;;14.57;;
179;SDS011;78;48.788;9.010;2024-01-07T08:39:15;36.50;;;13.70;;
179;SDS011;78;48.788;9.010;2024-01-07T08:41:41;37.50;;;14.13;;
179;SDS011;78;48.788;9.010;2024-01-07T08:44:08;35.53;;;14.10;;
179;SDS011;78;48.788;9.010;2024-01-07T08:46:34;41.40;;;14.87;;
179;SDS011;78;48.788;9.010;2024-01-07T08:49:01;37.13;;;14.60;;
179;SDS011;78;48.788;9.010;2024-01-07T08:51:27;36.13;;;14.70;;
179;SDS011;78;48.788;9.010;2024-01-07T08:53:54;35.97;;;13.97;;
179;SDS011;78;48.788;9.010;2024-01-07T08:56:22;34.87;;;13.17;;
179;SDS011;78;48.788;9.010;2024-01-07T08:58:49;31.93;;;11.17;;
179;SDS011;78;48.788;9.010;2024-01-07T09:01:15;32.50;;;11.00;;
179;SDS011;78;48.788;9.010;2024-01-07T09:03:41;30.03;;;10.60;;
179;SDS011;78;48.788;9.010;2024-01-07T09:06:08;28.30;;;10.23;;
179;SDS011;78;48.788;9.010;2024-01-07T09:08:34;29.00;;;10.40;;
179;SDS011;78;48.788;9.010;2024-01-07T09:11:00;33.40;;;11.70;;
179;SDS011;78;48.788;9.010;2024-01-07T09:13:27;30.47;;;10.50;;
179;SDS011;78;48.788;9.010;2024-01-07T09:15:53;30.20;;;11.17;;
179;SDS011;78;48.788;9.010;2024-01-07T09:18:20;29.33;;;10.13;;
179;SDS011;78;48.788;9.010;2024-01-07T09:20:46;30.50;;;10.87;;
179;SDS011;78;48.788;9.010;2024-01-07T09:23:12;31.37;;;11.07;;
179;SDS011;78;48.788;9.010;2024-01-07T09:25:40;34.33;;;13.07;;
179;SDS011;78;48.788;9.010;2024-01-07T09:28:07;33.37;;;12.80;;
179;SDS011;78;48.788;9.010;2024-01-07T09:30:33;32.70;;;11.57;;
179;SDS011;78;48.788;9.010;2024-01-07T09:33:00;34.87;;;12.20;;
179;SDS011;78;48.788;9.010;2024-01-07T09:35:26;31.60;;;11.40;;
179;SDS011;78;48.788;9.010;2024-01-07T09:37:53;33.60;;;12.97;;
179;SDS011;78;48.788;9.010;2024-01-07T09:40:19;32.17;;;11.93;;
179;SDS011;78;48.788;9.010;2024-01-07T09:42:46;33.60;;;12.40;;
179;SDS011;78;48.788;9.010;2024-01-07T09:45:13;33.40;;;12.57;;
179;SDS011;78;48.788;9.010;2024-01-07T09:47:43;37.63;;;12.63;;
179;SDS011;78;48.788;9.010;2024-01-07T09:50:11;33.97;;;12.90;;
179;SDS011;78;48.788;9.010;2024-01-07T09:52:38;34.90;;;13.00;;
179;SDS011;78;48.788;9.010;2024-01-07T09:55:08;33.83;;;12.20;;
179;SDS011;78;48.788;9.010;2024-01-07T09:57:35;35.37;;;13.10;;
179;SDS011;78;48.788;9.010;2024-01-07T10:00:02;37.63;;;13.73;;
179;SDS011;78;48.788;9.010;2024-01-07T10:02:29;37.23;;;13.60;;
179;SDS011;78;48.788;9.010;2024-01-07T10:04:55;36.17;;;13.60;;
179;SDS011;78;48.788;9.010;2024-01-07T10:07:21;37.80;;;14.53;;
179;SDS011;78;48.788;9.010;2024-01-07T10:09:47;37.30;;;14.20;;
179;SDS011;78;48.788;9.010;2024-01-07T10:12:13;35.37;;;13.00;;
179;SDS011;78;48.788;9.010;2024-01-07T10:14:39;34.50;;;13.43;;
179;SDS011;78;48.788;9.010;2024-01-07T10:17:15;42.30;;;13.70;;
179;SDS011;78;48.788;9.010;2024-01-07T10:19:44;39.20;;;16.50;;
179;SDS011;78;48.788;9.010;2024-01-07T10:22:11;40.17;;;16.63;;
179;SDS011;78;48.788;9.010;2024-01-07T10:24:41;40.63;;;15.87;;
179;SDS011;78;48.788;9.010;2024-01-07T10:27:08;38.50;;;14.47;;
179;SDS011;78;48.788;9.010;2024-01-07T10:29:35;34.90;;;13.00;;
179;SDS011;78;48.788;9.010;2024-01-07T10:32:01;35.83;;;13.77;;
179;SDS011;78;48.788;9.010;2024-01-07T10:34:34;33.00;;;12.53;;
179;SDS011;78;48.788;9.010;2024-01-07T10:37:00;29.07;;;10.13;;
179;SDS011;78;48.788;9.010;2024-01-07T10:39:27;29.43;;;10.83;;
179;SDS011;78;48.788;9.010;2024-01-07T10:41:53;24.90;;;9.03;;
179;SDS011;78;48.788;9.010;2024-01-07T10:44:23;25.97;;;8.77;;
179;SDS011;78;48.788;9.010;2024-01-07T10:46:49;25.97;;;9.10;;
179;SDS011;78;48.788;9.010;2024-01-07T10:49:22;25.93;;;9.10;;
179;SDS011;78;48.788;9.010;2024-01-07T10:52:02;26.63;;;8.73;;
179;SDS011;78;48.788;9.010;2024-01-07T10:54:30;27.40;;;8.93;;
179;SDS011;78;48.788;9.010;2024-01-07T10:56:58;26.40;;;9.10;;
179;SDS011;78;48.788;9.010;2024-01-07T10:59:25;28.33;;;9.50;;
179;SDS011;78;48.788;9.010;2024-01-07T11:01:53;27.20;;;9.73;;
179;SDS011;78;48.788;9.010;2024-01-07T11:04:41;23.77;;;8.00;;
179;SDS011;78;48.788;9.010;2024-01-07T11:12:35;27.07;;;9.67;;
179;SDS011;78;48.788;9.010;2024-01-07T11:15:02;27.93;;;10.20;;
179;SDS011;78;48.788;9.010;2024-01-07T11:20:01;26.90;;;9.43;;
179;SDS011;78;48.788;9.010;2024-01-07T11:22:27;27.47;;;9.90;;
179;SDS011;78;48.788;9.010;2024-01-07T11:24:54;30.00;;;10.60;;
179;SDS011;78;48.788;9.010;2024-01-07T11:27:24;29.00;;;10.57;;
179;SDS011;78;48.788;9.010;2024-01-07T11:29:53;28.50;;;10.60;;
179;SDS011;78;48.788;9.010;2024-01-07T11:32:21;29.30;;;10.17;;
179;SDS011;78;48.788;9.010;2024-01-07T11:34:48;28.33;;;10.10;;
179;SDS011;78;48.788;9.010;2024-01-07T11:37:17;34.60;;;10.37;;
179;SDS011;78;48.788;9.010;2024-01-07T11:39:48;30.50;;;10.73;;
179;SDS011;78;48.788;9.010;2024-01-07T11:42:14;29.03;;;10.40;;
179;SDS011;78;48.788;9.010;2024-01-07T11:44:47;27.40;;;9.60;;
179;SDS011;78;48.788;9.010;2024-01-07T11:47:14;30.43;;;10.30;;
179;SDS011;78;48.788;9.010;2024-01-07T11:49:40;28.47;;;10.40;;
179;SDS011;78;48.788;9.010;2024-01-07T11:52:06;27.87;;;10.13;;
179;SDS011;78;48.788;9.010;2024-01-07T11:54:34;30.73;;;11.63;;
179;SDS011;78;48.788;9.010;2024-01-07T11:57:00;29.30;;;10.90;;
179;SDS011;78;48.788;9.010;2024-01-07T11:59:27;31.17;;;10.30;;
179;SDS011;78;48.788;9.010;2024-01-07T12:01:54;34.50;;;11.80;;
179;SDS011;78;48.788;9.010;2024-01-07T12:04:20;30.60;;;10.77;;
179;SDS011;78;48.788;9.010;2024-01-07T12:06:47;32.70;;;11.53;;
179;SDS011;78;48.788;9.010;2024-01-07T12:09:13;32.10;;;12.10;;
179;SDS011;78;48.788;9.010;2024-01-07T12:11:39;34.93;;;13.53;;
179;SDS011;78;48.788;9.010;2024-01-07T12:14:06;32.90;;;12.50;;
179;SDS011;78;48.788;9.010;2024-01-07T12:16:33;31.07;;;11.77;;
179;SDS011;78;48.788;9.010;2024-01-07T12:18:59;33.53;;;12.60;;
179;SDS011;78;48.788;9.010;2024-01-07T12:21:25;32.03;;;12.00;;
179;SDS011;78;48.788;9.010;2024-01-07T12:23:53;35.57;;;12.63;;
179;SDS011;78;48.788;9.010;2024-01-07T12:26:21;32.03;;;12.50;;
179;SDS011;78;48.788;9.010;2024-01-07T12:28:52;29.53;;;11.40;;
179;SDS011;78;48.788;9.010;2024-01-07T12:31:19;34.30;;;12.37;;
179;SDS011;78;48.788;9.010;2024-01-07T12:33:46;35.70;;;13.80;;
179;SDS011;78;48.788;9.010;2024-01-07T12:36:12;37.97;;;13.57;;
179;SDS011;78;48.788;9.010;2024-01-07T12:38:38;33.10;;;12.43;;
179;SDS011;78;48.788;9.010;2024-01-07T12:41:04;36.30;;;13.10;;
179;SDS011;78;48.788;9.010;2024-01-07T12:43:30;37.20;;;13.77;;
179;SDS011;78;48.788;9.010;2024-01-07T12:45:56;37.50;;;14.73;;
179;SDS011;78;48.788;9.010;2024-01-07T12:48:26;36.10;;;13.60;;
179;SDS011;78;48.788;9.010;2024-01-07T12:50:52;34.13;;;12.93;;
179;SDS011;78;48.788;9.010;2024-01-07T12:53:18;34.90;;;14.10;;
179;SDS011;78;48.788;9.010;2024-01-07T12:55:44;38.07;;;14.50;;
179;SDS011;78;48.788;9.010;2024-01-07T12:58:10;38.73;;;14.33;;
179;SDS011;78;48.788;9.010;2024-01-07T13:00:36;38.33;;;14.73;;
179;SDS011;78;48.788;9.010;2024-01-07T13:03:03;36.33;;;14.23;;
179;SDS011;78;48.788;9.010;2024-01-07T13:05:30;35.93;;;13.00;;
179;SDS011;78;48.788;9.010;2024-01-07T13:07:56;33.23;;;13.30;;
179;SDS011;78;48.788;9.010;2024-01-07T13:10:22;36.47;;;14.07;;
179;SDS011;78;48.788;9.010;2024-01-07T13:12:48;36.83;;;14.27;;
179;SDS011;78;48.788;9.010;2024-01-07T13:15:15;36.03;;;14.13;;
179;SDS011;78;48.788;9.010;2024-01-07T13:17:41;37.10;;;14.40;;
179;SDS011;78;48.788;9.010;2024-01-07T13:20:07;36.43;;;13.60;;
179;SDS011;78;48.788;9.010;2024-01-07T13:22:36;35.33;;;13.70;;
179;SDS011;78;48.788;9.010;2024-01-07T13:25:03;37.90;;;14.27;;
179;SDS011;78;48.788;9.010;2024-01-07T13:27:29;36.60;;;14.27;;
179;SDS011;78;48.788;9.010;2024-01-07T13:29:55;36.67;;;14.20;;
179;SDS011;78;48.788;9.010;2024-01-07T13:32:21;37.07;;;14.40;;
179;SDS011;78;48.788;9.010;2024-01-07T13:34:47;35.10;;;13.70;;
179;SDS011;78;48.788;9.010;2024-01-07T13:37:13;37.13;;;14.30;;
179;SDS011;78;48.788;9.010;2024-01-07T13:39:39;36.67;;;14.33;;
179;SDS011;78;48.788;9.010;2024-01-07T13:42:05;36.60;;;14.30;;
179;SDS011;78;48.788;9.010;2024-01-07T13:44:31;36.80;;;15.13;;
179;SDS011;78;48.788;9.010;2024-01-07T13:46:59;36.57;;;14.80;;
179;SDS011;78;48.788;9.010;2024-01-07T13:49:30;41.67;;;15.37;;
179;SDS011;78;48.788;9.010;2024-01-07T13:51:57;39.60;;;14.70;;
179;SDS011;78;48.788;9.010;2024-01-07T13:54:23;40.83;;;16.43;;
179;SDS011;78;48.788;9.010;2024-01-07T13:56:49;41.40;;;15.73;;
179;SDS011;78;48.788;9.010;2024-01-07T13:59:15;39.57;;;14.87;;
179;SDS011;78;48.788;9.010;2024-01-07T14:01:42;39.60;;;15.83;;
179;SDS011;78;48.788;9.010;2024-01-07T14:04:08;42.57;;;16.77;;
179;SDS011;78;48.788;9.010;2024-01-07T14:06:34;39.30;;;16.20;;
179;SDS011;78;48.788;9.010;2024-01-07T14:09:00;39.17;;;15.47;;
179;SDS011;78;48.788;9.010;2024-01-07T14:11:28;41.63;;;16.37;;
179;SDS011;78;48.788;9.010;2024-01-07T14:13:53;43.20;;;17.30;;
179;SDS011;78;48.788;9.010;2024-01-07T14:16:20;42.93;;;17.30;;
179;SDS011;78;48.788;9.010;2024-01-07T14:18:46;43.73;;;16.73;;
179;SDS011;78;48.788;9.010;2024-01-07T14:21:12;43.80;;;17.47;;
179;SDS011;78;48.788;9.010;2024-01-07T14:23:38;41.90;;;15.70;;
179;SDS011;78;48.788;9.010;2024-01-07T14:26:05;40.10;;;15.20;;
179;SDS011;78;48.788;9.010;2024-01-07T14:28:31;46.40;;;17.50;;
179;SDS011;78;48.788;9.010;2024-01-07T14:30:57;42.40;;;16.83;;
179;SDS011;78;48.788;9.010;2024-01-07T14:33:24;43.53;;;16.90;;
179;SDS011;78;48.788;9.010;2024-01-07T14:35:50;41.37;;;16.20;;
179;SDS011;78;48.788;9.010;2024-01-07T14:38:17;42.93;;;16.60;;
179;SDS011;78;48.788;9.010;2024-01-07T14:40:43;47.20;;;17.57;;
179;SDS011;78;48.788;9.010;2024-01-07T14:43:11;45.27;;;17.53;;
179;SDS011;78;48.788;9.010;2024-01-07T14:45:38;45.07;;;17.33;;
179;SDS011;78;48.788;9.010;2024-01-07T14:48:04;44.73;;;16.80;;
179;SDS011;78;48.788;9.010;2024-01-07T14:50:30;39.30;;;15.23;;
179;SDS011;78;48.788;9.010;2024-01-07T14:52:56;42.10;;;15.90;;
179;SDS011;78;48.788;9.010;2024-01-07T14:55:23;46.23;;;17.20;;
179;SDS011;78;48.788;9.010;2024-01-07T14:57:49;42.20;;;16.70;;
179;SDS011;78;48.788;9.010;2024-01-07T15:00:15;41.33;;;15.83;;
179;SDS011;78;48.788;9.010;2024-01-07T15:02:42;41.27;;;15.77;;
179;SDS011;78;48.788;9.010;2024-01-07T15:05:08;41.07;;;16.40;;
179;SDS011;78;48.788;9.010;2024-01-07T15:07:34;41.10;;;15.87;;
179;SDS011;78;48.788;9.010;2024-01-07T15:10:00;45.20;;;16.23;;
179;SDS011;78;48.788;9.010;2024-01-07T15:12:27;43.77;;;16.53;;
179;SDS011;78;48.788;9.010;2024-01-07T15:15:02;41.10;;;16.63;;
179;SDS011;78;48.788;9.010;2024-01-07T15:17:31;42.07;;;16.87;;
179;SDS011;78;48.788;9.010;2024-01-07T15:19:57;44.33;;;16.97;;
179;SDS011;78;48.788;9.010;2024-01-07T15:22:23;46.83;;;18.27;;
179;SDS011;78;48.788;9.010;2024-01-07T15:24:50;47.73;;;16.83;;
179;SDS011;78;48.788;9.010;2024-01-07T15:27:17;44.10;;;16.90;;
179;SDS011;78;48.788;9.010;2024-01-07T15:29:43;42.90;;;16.60;;
179;SDS011;78;48.788;9.010;2024-01-07T15:32:09;43.50;;;17.13;;
179;SDS011;78;48.788;9.010;2024-01-07T15:34:35;45.90;;;17.60;;
179;SDS011;78;48.788;9.010;2024-01-07T15:37:01;57.57;;;18.23;;